Terminal Aerodrome Forecast
Issued by NWS North Platte, NE

Home | Current Version | Previous Version | Text Only | Print | Product List | Glossary On
Versions: 1 2 3 4 5 6 7 8 9 10 11 12 13 14 15 16 17 18 19 20
000
FTUS43 KLBF 012300
TAFVTN
TAF
KVTN 012327Z 0200/0224 34008KT P6SM SCT040 BKN120 BKN250
     FM020500 33008KT P6SM VCSH SCT050 OVC070
     FM021000 30008KT P6SM SCT050 OVC080
     FM021500 32010KT P6SM FEW050 SCT200=

USA.gov is the U.S. government's official web portal to all federal, state and local government web resources and services.